Racecast

Angelo Magliola

Bella Vista (CA) · 12 · CVCCA D2SJS D2 · Compare head to head

Athlete rating 122.2 2012 TF season
Best race 127.6 XC
Races 57
Seasons 4 2009 — 2012

RankedNation #8729·CA #1186·CA D2 #531·SJS #100·SJS D2 #22·CVC #10·Team #9 ?

Speed rating — all races

Cross Country

XC speed rating

2011 XC 124.6

Bella Vista (CA) · Grade 12

Date Meet Event Result Place Rating Difficulty PR/SR Flags
2011-11-26 Woodward Park 5000m 16:48 118th · 3rd on team 124.2 +0.013
2011-11-11 Willow Hills Reservoir Course 5000m 16:58 21st · 3rd on team 126.9 +0.045 ★CR CSR
2011-11-05 Calaveras County Fairgrounds 4828m 16:46 25th · 3rd on team 124.8 +0.065 ★CR SR CSR
2011-10-28 Willow Hills Reservoir Course 5000m 17:15.2 12th · 6th on team 124.9 +0.045 CR CSR
2011-10-15 Willow Hills Reservoir Course 5000m 17:18.9 14th · 1st on team 125.1 +0.045 CR CSR
2011-10-12 Maidu Park 5000m 16:43.6 7th · 2nd on team 123.0 -0.007 ★CR CSR
2011-10-08 Woodward Park 5000m 16:41 25th · 3rd on team 125.5 +0.013 ★CR CSR
2011-09-24 Stanford University Golf Course 5000m 16:32 37th · 5th on team 125.0 +0.002 ★CR CSR
2011-09-14 Granite Park 5000m 16:52.9 11th · 7th on team 122.7 +0.002
2011-09-10 Granite Park 5000m 16:23 14th · 2nd on team 127.6 +0.002 ★PR ★CR ★R SR CSR RSR
2011-09-03 Lagoon Valley Park 4828m 16:47.3 15th · 3rd on team 124.6 +0.056 ★CR SR CSR RSR
2011-08-26 Woodland High School 3218m 10:36 1st · 1st on team 121.3 +0.024 ★PR ★CR SR CSR RSR

2010 XC 120.9

Bella Vista (CA) · Grade 11

Date Meet Event Result Place Rating Difficulty PR/SR Flags
2010-11-13 Willow Hills Reservoir Course 5000m 17:19 1st · 1st on team 124.6 +0.045 CR R CSR RSR
2010-11-06 Calaveras County Fairgrounds 4828m 17:10 1st · 1st on team 123.9 +0.065 CR R CSR RSR
2010-10-29 Willow Hills Reservoir Course 5000m 17:51 15th · 7th on team 120.6 +0.045
2010-10-16 Willow Hills Reservoir Course 5000m 17:44.4 2nd · 2nd on team 122.0 +0.045 CR CSR
2010-10-12 Granite Park 4828m 16:34 13th · 6th on team 122.8 +0.012 ★PR ★CR R SR CSR RSR
2010-10-09 Woodward Park 5000m 17:07 76th · 6th on team 122.5 +0.013 PR CR R SR CSR RSR
2010-09-18 Nevada Union High School 4828m 17:45 20th · 4th on team 119.7 +0.076 ★CR CSR
2010-09-15 Granite Park 4828m 17:24 11th · 6th on team 115.7 +0.012 CR CSR
2010-09-11 Granite Park 4828m 17:29 54th · 5th on team 116.4 +0.012 CR CSR
2010-09-04 Lagoon Valley Park 4828m 17:19.8 34th · 7th on team 120.9 +0.056 PR CR SR CSR RSR
2010-08-27 Woodland High School 3218m 10:40 4th · 4th on team 120.7 +0.024 PR CR SR CSR RSR

2009 XC 119.3

Bella Vista (CA) · Grade 10

Date Meet Event Result Place Rating Difficulty PR/SR Flags
2009-11-14 Willow Hills Reservoir Course 3400m 11:46 2nd · 2nd on team 121.1 +0.043 ★PR ★CR R SR CSR RSR
2009-11-07 Calaveras County Fairgrounds 3218m 11:33 2nd · 2nd on team 119.9 +0.084 PR ★CR R SR CSR RSR
2009-10-17 Willow Hills Reservoir Course 3400m 12:15.6 3rd · 2nd on team 116.9 +0.043 PR CR R SR CSR RSR

Track & Field

TF speed rating

2012 TF 119.8

Bella Vista (CA) · Grade 12

Date Meet Event Result Place Rating Difficulty PR/SR Flags
2012-05-11 Capital Valley Conference Finals 3200m 10:09.04 9th · 4th on team 122.7 -0.020
2012-05-05 Bella Vista Bronco Invitational 1600m 4:46.99 6th · 3rd on team 117.6 -0.036
2012-04-28 Sacramento Meet of Champions 3200m 10:01.65 10th · 3rd on team 122.2 -0.034
2012-04-18 CVC Center Meet 3 3200m 10:13.31 3rd · 1st on team 120.2 -0.028
2012-03-31 Lancer invite 1600m 4:50.25 4th · 2nd on team 117.6 -0.031
2012-03-28 CVC Center Meet 2 3200m 9:56.78 4th · 2nd on team 124.0 -0.025 ★PR SR RSR
2012-03-21 CVC Center Meet 1 800m 2:09.77 12th · 4th on team 115.1 -0.036
2012-03-21 CVC Center Meet 1 1600m 4:39.67 7th · 3rd on team 120.4 -0.036 ★PR SR
2012-03-17 Dublin Distance Fiesta 1600m 4:39.8 24th · 3rd on team 121.2 -0.038 PR SR RSR
2012-03-17 Dublin Distance Fiesta 800m 2:09.4 44th · 4th on team 116.3 -0.038 ★PR SR
2012-03-07 Bella Vista - Ponderosa Dual 1600m 4:41.06 1st · 1st on team 120.9 -0.036 PR SR RSR

2011 TF 115.5

Bella Vista (CA) · Grade 11

Date Meet Event Result Place Rating Difficulty PR/SR Flags
2011-05-12 Capital Valley Conference Finals 1600m 4:42.65 10th · 4th on team 119.3 -0.036 PR SR RSR
2011-05-12 Capital Valley Conference Finals 3200m 10:29.45 11th · 5th on team 116.1 -0.036 PR SR
2011-05-07 Folsom/Del Campo Distance Carnival 3200m 10:30.34 3rd · 3rd on team 117.8 -0.020 PR SR
2011-04-28 CVC Center Meet 3 3200m 10:56.75 11th · 2nd on team 113.1 -0.020 PR SR
2011-04-28 CVC Center Meet 3 1600m 4:51.71 10th · 6th on team 117.5 -0.020
2011-04-06 CVC Center Meet 2 1600m 4:49.38 13th · 6th on team 118.0 -0.025 SR RSR
2011-04-06 CVC Center Meet 2 800m 2:16.26 13th · 4th on team 111.1 -0.025
2011-04-02 Bella Vista Bronco Invitational 800m 2:14.48 34th · 3rd on team 111.4 -0.036
2011-04-02 Bella Vista Bronco Invitational 1600m 4:49.6 34th · 5th on team 116.5 -0.036 SR RSR
2011-03-16 CVC Center Meet 1 1600m 4:52.43 9th · 4th on team 115.6 -0.036 SR RSR
2011-03-16 CVC Center Meet 1 800m 2:12.34 10th · 3rd on team 113.6 -0.036 SR

2010 TF 112.6

Bella Vista (CA) · Grade 10

Date Meet Event Result Place Rating Difficulty PR/SR Flags
2010-04-17 Depth Charge 800m 2:16.61 6th · 2nd on team 110.9 -0.020
2010-04-17 Depth Charge 1600m 4:53.82 2nd · 2nd on team 116.1 -0.020
2010-04-10 Bella Vista Invitational 1600m 4:46.99 5th · 2nd on team 117.3 -0.036 PR SR RSR
2010-04-10 Bella Vista Invitational 800m 2:12.06 6th · 2nd on team 113.5 -0.036 PR SR
2010-03-24 Capital Athletic League Center Meet 2 800m 2:13.73 3rd · 2nd on team 111.6 -0.036 PR SR
2010-03-24 Capital Athletic League Center Meet 2 1600m 4:53.01 1st · 1st on team 114.7 -0.036 PR SR RSR
2010-03-10 Capital Athletic League Center Meet 1 1600m 4:56.19 4th · 3rd on team 113.4 -0.036 PR SR RSR
2010-03-10 Capital Athletic League Center Meet 1 800m 2:19.31 5th · 3rd on team 107.2 -0.036 PR SR
2010-03-06 CAL Invitational 1600m 5:09.25 21st · 4th on team 108.4 -0.036 PR SR RSR